Time;durP1;ratioP1;P1;durP2;ratioP2;P2;SDS_P1;SDS_P2;PMS_P1;PMS_P2;Temp;Humidity;BMP_temperature;BMP_pressure;BME280_temperature;BME280_humidity;BME280_pressure;Samples;Min_cycle;Max_cycle;Signal;HPM_P1;HPM_P2
2023/06/27 05:39:01;;;;;;;;;;;;;;;16.48;100.00;99408.30;1800831;78;20167;-68
2023/06/27 05:41:30;;;;;;;;;;;;;;;16.54;100.00;99407.26;1766203;80;20148;-72
2023/06/27 05:43:56;;;;;;;;;;;;;;;16.51;100.00;99403.59;1799090;78;20105;-68
2023/06/27 05:46:24;;;;;;;;;;;;;;;16.53;100.00;99409.54;1796414;78;20203;-70
2023/06/27 05:51:23;;;;;;;;;;;;;;;16.60;100.00;99400.62;1798333;78;20110;-71
2023/06/27 05:53:51;;;;;;;;;;;;;;;16.65;100.00;99410.27;1796330;78;20417;-70
2023/06/27 05:56:18;;;;;;;;;;;;;;;16.65;100.00;99403.70;1767482;78;20150;-71
2023/06/27 06:01:21;;;;;;;;;;;;;;;16.58;100.00;99405.19;1803285;78;20092;-69
2023/06/27 06:03:50;;;;;;;;;;;;;;;16.57;100.00;99410.92;1803216;78;20418;-70
2023/06/27 06:06:24;;;;;;;;;;;;;;;16.56;100.00;99401.86;1783008;80;20412;-73
2023/06/27 06:08:55;;;;;;;;;;;;;;;16.57;100.00;99403.52;1761181;80;20219;-72
2023/06/27 06:11:22;;;;;;;;;;;;;;;16.54;100.00;99404.63;1754654;81;20158;-70
2023/06/27 06:13:48;;;;;;;;;;;;;;;16.51;100.00;99403.59;1752003;82;20169;-69
2023/06/27 06:16:15;;;;;;;;;;;;;;;16.53;100.00;99410.02;1782727;81;20389;-71
2023/06/27 06:21:20;;;;;;;;;;;;;;;16.49;100.00;99406.84;1787114;79;20206;-69
2023/06/27 06:23:46;;;;;;;;;;;;;;;16.47;100.00;99413.20;1761661;80;20129;-69
2023/06/27 06:26:14;;;;;;;;;;;;;;;16.45;100.00;99405.94;1768387;81;20105;-68
2023/06/27 06:28:41;;;;;;;;;;;;;;;16.43;100.00;99404.77;1770832;80;20174;-69
2023/06/27 06:31:10;;;;;;;;;;;;;;;16.42;100.00;99395.70;1788820;79;20171;-70
2023/06/27 06:33:38;;;;;;;;;;;;;;;16.45;100.00;99395.43;1768156;81;20112;-73
2023/06/27 06:36:07;;;;;;;;;;;;;;;16.46;100.00;99392.66;1753658;81;20164;-72
2023/06/27 06:38:34;;;;;;;;;;;;;;;16.48;100.00;99393.36;1776838;80;20218;-71
2023/06/27 06:41:04;;;;;;;;;;;;;;;16.55;100.00;99397.09;1795164;79;20148;-74
2023/06/27 06:43:31;;;;;;;;;;;;;;;16.64;100.00;99394.15;1784585;79;20108;-73
2023/06/27 06:45:58;;;;;;;;;;;;;;;16.68;100.00;99389.44;1785380;79;20134;-72
2023/06/27 06:48:25;;;;;;;;;;;;;;;16.68;100.00;99386.33;1785301;79;20160;-72
2023/06/27 06:50:51;;;;;;;;;;;;;;;16.75;100.00;99394.00;1784295;79;20097;-73
2023/06/27 06:53:19;;;;;;;;;;;;;;;16.87;100.00;99389.39;1779382;78;20171;-69
2023/06/27 06:55:45;;;;;;;;;;;;;;;17.06;100.00;99384.09;1787212;79;20164;-70
2023/06/27 06:58:13;;;;;;;;;;;;;;;17.27;100.00;99388.64;1784225;79;20169;-72
2023/06/27 07:00:41;;;;;;;;;;;;;;;17.52;100.00;99394.23;1784904;79;20167;-71
2023/06/27 07:03:09;;;;;;;;;;;;;;;17.78;100.00;99388.64;1785075;79;20146;-69
2023/06/27 07:05:38;;;;;;;;;;;;;;;17.89;100.00;99376.59;1792347;79;20108;-75
2023/06/27 07:08:06;;;;;;;;;;;;;;;17.87;100.00;99394.34;1786562;79;20134;-69
2023/06/27 07:10:34;;;;;;;;;;;;;;;17.82;100.00;99383.42;1799139;79;20176;-71
2023/06/27 07:13:05;;;;;;;;;;;;;;;17.84;100.00;99385.42;1790188;79;20127;-68
2023/06/27 07:15:32;;;;;;;;;;;;;;;17.88;100.00;99392.05;1786111;80;20144;-68
2023/06/27 07:17:59;;;;;;;;;;;;;;;17.95;100.00;99382.59;1775765;79;20830;-71
2023/06/27 07:20:26;;;;;;;;;;;;;;;18.06;100.00;99393.86;1776328;79;20164;-71
2023/06/27 07:22:52;;;;;;;;;;;;;;;18.16;100.00;99384.09;1788738;79;20131;-74
2023/06/27 07:25:19;;;;;;;;;;;;;;;18.39;100.00;99374.77;1756193;80;20124;-71
2023/06/27 07:27:46;;;;;;;;;;;;;;;18.87;100.00;99378.75;1781993;79;20153;-73
2023/06/27 07:30:12;;;;;;;;;;;;;;;19.51;100.00;99376.17;1742587;80;20474;-73
2023/06/27 07:32:39;;;;;;;;;;;;;;;19.93;100.00;99373.00;1784306;79;20158;-72
2023/06/27 07:35:08;;;;;;;;;;;;;;;20.11;100.00;99382.59;1759906;80;20137;-74
2023/06/27 07:37:34;;;;;;;;;;;;;;;20.16;100.00;99380.30;1757811;80;20162;-72
2023/06/27 07:40:02;;;;;;;;;;;;;;;20.19;100.00;99393.19;1778133;79;20379;-73
2023/06/27 07:42:30;;;;;;;;;;;;;;;20.06;100.00;99396.79;1786710;79;20091;-73
2023/06/27 07:50:04;;;;;;;;;;;;;;;19.74;100.00;99395.72;1760737;81;20142;-69
2023/06/27 07:52:31;;;;;;;;;;;;;;;19.73;100.00;99392.75;1771571;79;20189;-75
2023/06/27 07:54:58;;;;;;;;;;;;;;;19.71;100.00;99393.89;1786522;79;20104;-73
2023/06/27 07:57:25;;;;;;;;;;;;;;;19.64;100.00;99395.02;1780071;80;20418;-74
2023/06/27 07:59:51;;;;;;;;;;;;;;;19.56;100.00;99398.48;1784648;79;20456;-69
2023/06/27 08:02:18;;;;;;;;;;;;;;;19.46;100.00;99395.59;1789107;79;20425;-70
2023/06/27 08:04:48;;;;;;;;;;;;;;;19.38;100.00;99387.62;1785731;79;20451;-70
2023/06/27 08:07:14;;;;;;;;;;;;;;;19.32;100.00;99383.80;1785423;79;20120;-69
2023/06/27 08:09:42;;;;;;;;;;;;;;;19.21;100.00;99383.57;1788946;79;20165;-72
2023/06/27 08:12:10;;;;;;;;;;;;;;;19.01;100.00;99378.20;1781401;80;20471;-71
2023/06/27 08:14:39;;;;;;;;;;;;;;;18.92;100.00;99388.36;1777492;79;20157;-68
2023/06/27 08:19:34;;;;;;;;;;;;;;;18.83;100.00;99379.55;1799807;79;20095;-69
2023/06/27 08:22:01;;;;;;;;;;;;;;;18.94;100.00;99375.84;1781749;78;20132;-69
2023/06/27 08:24:28;;;;;;;;;;;;;;;19.14;100.00;99379.93;1781107;79;20155;-71
2023/06/27 08:26:55;;;;;;;;;;;;;;;19.34;100.00;99376.55;1752760;81;20153;-70
2023/06/27 08:29:25;;;;;;;;;;;;;;;19.53;100.00;99384.27;1780059;80;20211;-69
2023/06/27 08:34:20;;;;;;;;;;;;;;;19.85;100.00;99380.90;1813795;79;20094;-69
2023/06/27 08:36:47;;;;;;;;;;;;;;;19.82;100.00;99390.47;1779569;79;20088;-70
2023/06/27 08:39:16;;;;;;;;;;;;;;;19.74;99.32;99390.44;1757747;80;20099;-70
2023/06/27 08:41:45;;;;;;;;;;;;;;;19.59;98.51;99386.77;1767764;80;20167;-70
2023/06/27 08:44:17;;;;;;;;;;;;;;;19.40;98.88;99386.48;1765725;80;20106;-70
2023/06/27 08:46:44;;;;;;;;;;;;;;;19.23;100.00;99384.73;1759128;80;20118;-70
2023/06/27 08:49:11;;;;;;;;;;;;;;;19.21;100.00;99380.11;1749091;79;20125;-78
2023/06/27 08:51:38;;;;;;;;;;;;;;;19.33;100.00;99373.58;1749697;81;20180;-70
2023/06/27 08:54:12;;;;;;;;;;;;;;;19.54;100.00;99370.58;1778535;80;20152;-73
2023/06/27 08:59:07;;;;;;;;;;;;;;;19.98;100.00;99379.12;1749561;80;20445;-68
2023/06/27 09:01:36;;;;;;;;;;;;;;;20.08;99.01;99371.02;1757897;80;20128;-72
2023/06/27 09:04:03;;;;;;;;;;;;;;;20.09;98.49;99377.97;1761138;80;20152;-70
2023/06/27 09:16:24;;;;;;;;;;;;;;;20.25;92.35;99388.58;1777055;80;20412;-69
2023/06/27 09:18:52;;;;;;;;;;;;;;;20.13;92.21;99387.23;1750945;81;20178;-69
2023/06/27 09:21:20;;;;;;;;;;;;;;;20.01;92.65;99395.12;1770374;80;20136;-69
2023/06/27 09:23:50;;;;;;;;;;;;;;;19.84;92.59;99395.59;1762734;80;20148;-69
2023/06/27 09:28:50;;;;;;;;;;;;;;;19.53;94.11;99394.01;1768244;80;20162;-69
2023/06/27 09:31:32;;;;;;;;;;;;;;;19.47;95.35;99390.64;1772334;80;20382;-69
2023/06/27 09:34:11;;;;;;;;;;;;;;;19.52;97.13;99396.31;1774377;80;20108;-70
2023/06/27 09:44:21;;;;;;;;;;;;;;;19.72;94.50;99399.51;1779870;80;20170;-69
2023/06/27 09:54:14;;;;;;;;;;;;;;;19.40;98.69;99391.77;1774007;80;20389;-69
2023/06/27 09:56:41;;;;;;;;;;;;;;;19.44;99.22;99392.28;1747347;80;20143;-70
2023/06/27 10:01:40;;;;;;;;;;;;;;;19.42;97.61;99396.89;1767057;81;20155;-72
2023/06/27 10:04:07;;;;;;;;;;;;;;;19.35;97.37;99388.77;1763298;81;20145;-70
2023/06/27 10:06:34;;;;;;;;;;;;;;;19.29;97.77;99391.54;1764168;81;20164;-68
2023/06/27 10:09:01;;;;;;;;;;;;;;;19.20;98.06;99389.00;1767558;80;20113;-71
2023/06/27 10:11:27;;;;;;;;;;;;;;;19.10;98.08;99393.59;1782832;80;20524;-70
2023/06/27 10:13:54;;;;;;;;;;;;;;;18.96;98.58;99392.34;1765949;80;20140;-70
2023/06/27 10:16:21;;;;;;;;;;;;;;;18.86;99.55;99392.92;1768014;80;20142;-70
2023/06/27 10:18:47;;;;;;;;;;;;;;;18.82;100.00;99396.36;1760594;80;20585;-73
2023/06/27 10:21:15;;;;;;;;;;;;;;;18.86;100.00;99391.61;1777362;80;20097;-73
2023/06/27 10:23:44;;;;;;;;;;;;;;;18.97;100.00;99392.19;1767198;80;20132;-73
2023/06/27 10:26:11;;;;;;;;;;;;;;;19.16;100.00;99388.52;1776100;80;20386;-72
2023/06/27 10:28:38;;;;;;;;;;;;;;;19.39;100.00;99386.14;1764263;80;20137;-75
2023/06/27 10:31:05;;;;;;;;;;;;;;;19.72;100.00;99395.55;1777527;80;20132;-75
2023/06/27 10:33:39;;;;;;;;;;;;;;;20.03;100.00;99395.79;1775741;80;20121;-77
2023/06/27 10:36:05;;;;;;;;;;;;;;;20.26;100.00;99401.63;1721965;82;20142;-72
2023/06/27 10:38:38;;;;;;;;;;;;;;;20.48;99.79;99394.06;1762915;81;20138;-72
2023/06/27 10:41:09;;;;;;;;;;;;;;;20.61;96.97;99392.58;1747288;81;20126;-75
2023/06/27 10:43:52;;;;;;;;;;;;;;;20.68;95.34;99395.89;1771293;81;20089;-75
2023/06/27 10:46:33;;;;;;;;;;;;;;;20.81;95.28;99390.90;1756472;81;20186;-75
2023/06/27 10:48:59;;;;;;;;;;;;;;;21.00;94.48;99397.17;1745757;82;20116;-75
2023/06/27 10:51:46;;;;;;;;;;;;;;;21.17;93.23;99387.38;1763529;81;20132;-71
2023/06/27 10:54:15;;;;;;;;;;;;;;;21.27;90.96;99396.80;1745666;82;20165;-75
2023/06/27 10:56:47;;;;;;;;;;;;;;;21.29;89.61;99390.83;1746026;82;20115;-71
2023/06/27 10:59:16;;;;;;;;;;;;;;;21.30;88.61;99396.45;1745918;81;20111;-68
2023/06/27 11:02:08;;;;;;;;;;;;;;;21.28;87.96;99389.67;1754624;81;21006;-71
2023/06/27 11:04:44;;;;;;;;;;;;;;;21.22;86.85;99386.38;1752821;81;20162;-70
2023/06/27 11:12:27;;;;;;;;;;;;;;;20.67;85.26;99386.30;1761645;81;20138;-74
2023/06/27 11:14:55;;;;;;;;;;;;;;;20.44;85.37;99381.66;1754935;82;20182;-76
2023/06/27 11:17:23;;;;;;;;;;;;;;;20.28;85.95;99378.99;1748180;81;20456;-74
2023/06/27 11:19:49;;;;;;;;;;;;;;;20.18;86.78;99378.31;1751829;81;20117;-76
2023/06/27 11:22:16;;;;;;;;;;;;;;;20.13;87.19;99370.05;1747605;81;20444;-75
2023/06/27 11:24:48;;;;;;;;;;;;;;;20.08;88.33;99370.53;1745579;81;20170;-74
2023/06/27 11:27:14;;;;;;;;;;;;;;;20.07;89.48;99372.84;1743952;82;20174;-68
2023/06/27 11:29:42;;;;;;;;;;;;;;;20.08;90.25;99372.34;1744436;82;20142;-70
2023/06/27 11:32:09;;;;;;;;;;;;;;;20.11;91.74;99371.53;1748313;81;20145;-84
2023/06/27 11:34:36;;;;;;;;;;;;;;;20.20;91.64;99381.13;1757820;81;20175;-70
2023/06/27 11:37:10;;;;;;;;;;;;;;;20.29;90.70;99378.00;1749542;81;20404;-69
2023/06/27 11:39:37;;;;;;;;;;;;;;;20.38;90.04;99367.80;1748950;81;20483;-69
2023/06/27 11:42:06;;;;;;;;;;;;;;;20.44;89.03;99363.64;1743642;81;20422;-69
2023/06/27 11:44:34;;;;;;;;;;;;;;;20.50;89.75;99356.38;1745479;82;20392;-69
2023/06/27 11:47:05;;;;;;;;;;;;;;;20.64;89.58;99360.51;1746787;81;20127;-71
2023/06/27 11:49:31;;;;;;;;;;;;;;;20.73;88.99;99357.86;1786613;79;20103;-69
2023/06/27 11:51:58;;;;;;;;;;;;;;;20.80;89.07;99351.70;1758523;82;20105;-68
2023/06/27 11:54:25;;;;;;;;;;;;;;;20.82;87.58;99346.24;1759013;80;20134;-69
2023/06/27 11:56:51;;;;;;;;;;;;;;;20.78;87.66;99338.34;1758803;82;20125;-69
2023/06/27 11:59:30;;;;;;;;;;;;;;;20.75;88.01;99345.29;1763426;80;20179;-73
2023/06/27 12:01:57;;;;;;;;;;;;;;;20.70;88.93;99352.90;1766188;80;20114;-69
2023/06/27 12:04:26;;;;;;;;;;;;;;;20.68;89.43;99336.36;1758542;80;20116;-70
2023/06/27 12:06:52;;;;;;;;;;;;;;;20.68;87.97;99339.02;1759397;80;20087;-67
2023/06/27 12:09:22;;;;;;;;;;;;;;;20.68;88.12;99336.36;1767253;80;20441;-74
2023/06/27 12:11:52;;;;;;;;;;;;;;;20.72;88.53;99337.19;1767330;80;20129;-70
2023/06/27 12:14:22;;;;;;;;;;;;;;;20.79;88.97;99334.70;1771385;80;20189;-70
2023/06/27 12:16:53;;;;;;;;;;;;;;;20.89;88.85;99334.82;1777761;80;20121;-70
2023/06/27 12:19:20;;;;;;;;;;;;;;;21.02;88.55;99325.53;1776318;80;20136;-71
2023/06/27 12:21:47;;;;;;;;;;;;;;;21.11;88.41;99327.98;1773595;80;20122;-73
2023/06/27 12:24:14;;;;;;;;;;;;;;;21.25;89.41;99327.78;1775656;80;20125;-73
2023/06/27 12:26:41;;;;;;;;;;;;;;;21.40;88.67;99324.75;1765095;81;20146;-70
2023/06/27 12:29:09;;;;;;;;;;;;;;;21.52;87.75;99321.23;1769844;80;20112;-71
2023/06/27 12:31:35;;;;;;;;;;;;;;;21.62;86.40;99327.94;1770229;80;20111;-72
2023/06/27 12:34:03;;;;;;;;;;;;;;;21.71;85.26;99322.59;1769975;80;20167;-70
2023/06/27 12:36:33;;;;;;;;;;;;;;;21.79;85.06;99324.70;1766451;80;20106;-72
2023/06/27 12:39:00;;;;;;;;;;;;;;;21.91;84.87;99325.14;1768169;80;20132;-72
2023/06/27 12:41:27;;;;;;;;;;;;;;;22.04;83.03;99326.71;1765591;80;20188;-73
2023/06/27 12:43:54;;;;;;;;;;;;;;;22.14;82.11;99324.66;1776934;80;20158;-75
2023/06/27 12:46:21;;;;;;;;;;;;;;;22.26;80.43;99329.05;1775374;80;20906;-71
2023/06/27 12:58:47;;;;;;;;;;;;;;;22.80;76.00;99330.22;1765975;80;20438;-70
2023/06/27 13:01:16;;;;;;;;;;;;;;;22.85;73.64;99333.98;1774407;80;20110;-79
2023/06/27 13:03:42;;;;;;;;;;;;;;;22.79;74.88;99337.36;1764396;80;20247;-71
2023/06/27 13:06:11;;;;;;;;;;;;;;;22.71;75.68;99334.78;1765071;81;20114;-74
2023/06/27 13:08:37;;;;;;;;;;;;;;;22.62;76.35;99335.86;1764454;81;20169;-71
2023/06/27 13:11:04;;;;;;;;;;;;;;;22.47;76.76;99337.64;1766903;80;20173;-70
2023/06/27 13:13:34;;;;;;;;;;;;;;;22.36;77.75;99333.61;1784701;80;20817;-70
2023/06/27 13:16:04;;;;;;;;;;;;;;;22.28;78.96;99329.20;1766594;80;20110;-69
2023/06/27 13:23:37;;;;;;;;;;;;;;;22.11;78.38;99321.53;1780626;80;20116;-73
2023/06/27 13:26:06;;;;;;;;;;;;;;;22.06;78.99;99326.53;1780133;80;20388;-79
2023/06/27 13:28:37;;;;;;;;;;;;;;;22.00;78.52;99333.84;1776680;80;20117;-74
2023/06/27 13:31:05;;;;;;;;;;;;;;;21.91;78.86;99333.91;1771564;80;20386;-73
2023/06/27 13:33:32;;;;;;;;;;;;;;;21.85;79.07;99335.94;1746118;80;20133;-74
2023/06/27 13:35:58;;;;;;;;;;;;;;;21.81;79.85;99328.51;1771961;80;20396;-69
2023/06/27 13:38:26;;;;;;;;;;;;;;;21.81;80.06;99328.51;1770088;80;20146;-73
2023/06/27 13:40:52;;;;;;;;;;;;;;;21.78;79.87;99322.23;1778623;80;20155;-67
2023/06/27 13:43:20;;;;;;;;;;;;;;;21.74;80.16;99328.38;1770049;80;20421;-72
2023/06/27 13:45:53;;;;;;;;;;;;;;;21.70;80.67;99328.40;1774566;80;20104;-72
2023/06/27 13:48:17;;;;;;;;;;;;;;;21.67;81.14;99324.77;1777405;80;20120;-74
2023/06/27 14:03:34;;;;;;;;;;;;;;;21.14;84.02;99316.23;1791854;79;20308;-70
2023/06/27 14:06:00;;;;;;;;;;;;;;;21.01;84.78;99317.27;1791256;79;20673;-70
